createdAt,value
2019-03-12T00:04:25.355Z,5.23
2019-03-12T00:09:28.784Z,5.17
2019-03-12T00:14:32.221Z,5.16
2019-03-12T00:19:35.676Z,5.15
2019-03-12T00:24:39.086Z,5.11
2019-03-12T00:29:42.570Z,5.04
2019-03-12T00:34:45.996Z,5.03
2019-03-12T00:39:50.097Z,5.04
2019-03-12T00:44:53.464Z,4.98
2019-03-12T00:49:56.911Z,4.88
2019-03-12T00:55:00.397Z,4.91
2019-03-12T01:00:06.694Z,4.81
2019-03-12T01:05:10.271Z,4.75
2019-03-12T01:10:15.627Z,4.75
2019-03-12T01:15:19.094Z,4.68
2019-03-12T01:20:22.555Z,4.76
2019-03-12T01:25:25.988Z,4.78
2019-03-12T01:30:29.465Z,4.73
2019-03-12T01:35:32.899Z,4.62
2019-03-12T01:40:36.345Z,4.63
2019-03-12T01:45:39.830Z,4.55
2019-03-12T01:50:43.286Z,4.51
2019-03-12T01:55:46.775Z,4.41
2019-03-12T02:00:50.313Z,4.38
2019-03-12T02:05:53.772Z,4.27
2019-03-12T02:10:57.282Z,4.20
2019-03-12T02:16:00.782Z,4.12
2019-03-12T02:21:04.278Z,4.02
2019-03-12T02:26:07.733Z,4.00
2019-03-12T02:31:11.156Z,3.96
2019-03-12T02:36:14.570Z,3.80
2019-03-12T02:41:18.100Z,3.80
2019-03-12T02:46:21.547Z,3.64
2019-03-12T02:51:25.058Z,3.53
2019-03-12T02:56:28.518Z,3.57
2019-03-12T03:01:31.961Z,3.55
2019-03-12T03:06:39.598Z,3.57
2019-03-12T03:11:43.048Z,3.54
2019-03-12T03:16:46.500Z,3.54
2019-03-12T03:21:49.965Z,3.48
2019-03-12T03:26:53.416Z,3.45
2019-03-12T03:31:56.865Z,3.38
2019-03-12T03:37:00.343Z,3.38
2019-03-12T03:42:03.844Z,3.38
2019-03-12T03:47:07.284Z,3.31
2019-03-12T03:52:10.737Z,3.22
2019-03-12T03:57:14.200Z,3.10
2019-03-12T04:02:17.658Z,3.10
2019-03-12T04:07:21.087Z,3.07
2019-03-12T04:12:24.522Z,3.03
2019-03-12T04:17:27.996Z,3.06
2019-03-12T04:22:31.439Z,3.14
2019-03-12T04:27:35.044Z,3.23
2019-03-12T04:32:38.499Z,3.21
2019-03-12T04:37:41.935Z,3.20
2019-03-12T04:42:45.439Z,3.07
2019-03-12T04:47:48.884Z,3.10
2019-03-12T04:52:52.379Z,3.15
2019-03-12T04:57:55.819Z,3.14
2019-03-12T05:02:59.276Z,3.18
2019-03-12T05:08:02.754Z,3.15
2019-03-12T05:13:06.199Z,3.15
2019-03-12T05:18:09.655Z,3.22
2019-03-12T05:23:13.092Z,3.17
2019-03-12T05:28:16.567Z,3.13
2019-03-12T05:33:20.018Z,3.16
2019-03-12T05:38:23.439Z,3.21
2019-03-12T05:43:26.880Z,3.13
2019-03-12T05:48:30.315Z,3.19
2019-03-12T05:53:39.286Z,3.10
2019-03-12T05:58:42.795Z,3.24
2019-03-12T06:03:46.235Z,3.26
2019-03-12T06:08:49.685Z,3.21
2019-03-12T06:13:53.146Z,3.20
2019-03-12T06:18:56.610Z,3.23
2019-03-12T06:24:00.074Z,3.22
2019-03-12T06:29:03.570Z,3.22
2019-03-12T06:34:08.694Z,3.24
2019-03-12T06:39:16.639Z,3.34
2019-03-12T06:44:21.756Z,3.31
2019-03-12T06:49:32.254Z,3.40
2019-03-12T06:54:49.527Z,3.44
2019-03-12T07:00:03.465Z,3.48
2019-03-12T07:05:15.073Z,3.58
2019-03-12T07:10:35.274Z,3.77
2019-03-12T07:15:48.965Z,4.02
2019-03-12T07:21:05.884Z,4.21
2019-03-12T07:26:13.874Z,4.29
2019-03-12T07:31:21.639Z,4.42
2019-03-12T07:36:26.825Z,4.51
2019-03-12T07:41:37.521Z,4.63
2019-03-12T07:46:45.430Z,4.77
2019-03-12T07:51:50.541Z,5.04
2019-03-12T07:57:11.900Z,5.35
2019-03-12T08:02:25.620Z,5.54
2019-03-12T08:07:33.366Z,5.56
2019-03-12T14:11:35.396Z,10.66
2019-03-12T14:16:38.860Z,10.51
2019-03-12T14:21:42.456Z,10.59
2019-03-12T14:26:45.983Z,10.55
2019-03-12T14:31:49.484Z,10.40
2019-03-12T14:36:53.096Z,10.37
2019-03-12T14:41:56.597Z,10.24
2019-03-12T14:47:00.035Z,10.33
2019-03-12T14:52:06.752Z,10.26
2019-03-12T14:57:10.368Z,10.14
2019-03-12T15:02:13.850Z,10.17
2019-03-12T15:07:17.308Z,10.11
2019-03-12T15:12:20.742Z,10.24
2019-03-12T15:17:24.175Z,10.14
2019-03-12T15:22:27.623Z,10.01
2019-03-12T15:27:31.069Z,9.75
2019-03-12T15:32:34.520Z,9.81
2019-03-12T15:37:37.962Z,9.63
2019-03-12T15:42:41.420Z,9.61
2019-03-12T15:47:44.848Z,9.57
2019-03-12T15:52:48.269Z,9.53
2019-03-12T15:57:51.678Z,9.47
2019-03-12T16:02:55.116Z,9.48
2019-03-12T16:07:58.527Z,9.44
2019-03-12T16:13:01.995Z,9.35
2019-03-12T16:18:05.482Z,9.41
2019-03-12T16:23:08.912Z,9.37
2019-03-12T16:28:12.355Z,9.26
2019-03-12T16:33:15.792Z,9.22
2019-03-12T16:38:19.238Z,9.18
2019-03-12T16:43:22.693Z,9.16
2019-03-12T16:48:26.111Z,9.11
2019-03-12T16:53:29.657Z,9.12
2019-03-12T16:58:33.076Z,9.14
2019-03-12T17:03:36.593Z,9.11
2019-03-12T17:08:40.034Z,9.04
2019-03-12T17:13:43.442Z,9.03
2019-03-12T17:18:46.903Z,9.03
2019-03-12T17:23:50.330Z,9.02
2019-03-12T17:28:53.742Z,9.02
2019-03-12T17:33:57.184Z,9.02
2019-03-12T17:39:00.600Z,9.03
2019-03-12T17:44:04.084Z,9.02
2019-03-12T17:49:07.508Z,9.00
2019-03-12T17:54:10.916Z,9.05
2019-03-12T17:59:14.368Z,9.01
2019-03-12T18:04:17.784Z,9.06
2019-03-12T18:09:21.197Z,9.10
2019-03-12T18:14:24.626Z,9.00
2019-03-12T18:19:28.080Z,8.97
2019-03-12T18:24:31.602Z,8.99
2019-03-12T18:29:35.033Z,8.97
2019-03-12T18:34:38.453Z,8.94
2019-03-12T18:39:41.903Z,8.93
2019-03-12T18:44:45.410Z,9.00
2019-03-12T18:49:48.972Z,9.00
2019-03-12T18:54:52.420Z,8.89
2019-03-12T18:59:55.851Z,8.86
2019-03-12T19:04:59.297Z,8.95
2019-03-12T19:10:02.734Z,8.96
2019-03-12T19:15:09.164Z,8.94
2019-03-12T19:20:19.860Z,8.97
2019-03-12T19:25:41.601Z,9.02
2019-03-12T19:30:45.023Z,9.03
2019-03-12T19:35:48.511Z,9.06
2019-03-12T19:40:54.168Z,9.02
2019-03-12T19:45:57.594Z,8.99
2019-03-12T19:51:01.029Z,8.97
2019-03-12T19:56:08.026Z,9.03
2019-03-12T20:01:12.519Z,9.03
2019-03-12T20:06:15.944Z,9.06
2019-03-12T20:11:34.195Z,9.09
2019-03-12T20:16:43.603Z,9.19
2019-03-12T20:22:12.843Z,9.18
2019-03-12T20:27:22.301Z,9.08
2019-03-12T20:32:43.447Z,9.16
2019-03-12T20:38:11.166Z,9.27
2019-03-12T20:43:50.670Z,9.35
2019-03-12T20:49:16.670Z,9.49
2019-03-12T20:54:41.069Z,9.49
2019-03-12T21:00:22.140Z,9.47
2019-03-12T21:06:02.244Z,9.33
2019-03-12T21:11:37.754Z,9.31
2019-03-12T21:16:56.608Z,9.25
2019-03-12T21:22:20.424Z,9.10
2019-03-12T21:27:45.377Z,8.93
2019-03-12T21:32:48.847Z,8.69
2019-03-12T21:37:52.472Z,8.69
2019-03-12T21:42:55.991Z,8.62
2019-03-12T21:47:59.402Z,8.55
2019-03-12T21:53:03.018Z,8.55
2019-03-12T21:58:06.683Z,8.44
2019-03-12T22:03:10.141Z,8.51
2019-03-12T22:08:13.553Z,8.51
2019-03-12T22:13:16.966Z,8.48
2019-03-12T22:18:20.393Z,8.56
2019-03-12T22:23:25.472Z,8.48
2019-03-12T22:28:28.914Z,7.97
2019-03-12T22:33:32.405Z,7.29
2019-03-12T22:38:35.937Z,6.96
2019-03-12T22:43:39.455Z,6.77
2019-03-12T22:48:42.876Z,6.50
2019-03-12T22:53:46.296Z,6.40
2019-03-12T22:58:49.773Z,6.30
2019-03-12T23:03:53.151Z,6.14
2019-03-12T23:08:57.714Z,6.19
2019-03-12T23:14:01.142Z,6.14
2019-03-12T23:19:04.752Z,6.13
2019-03-12T23:24:08.238Z,6.10
2019-03-12T23:29:11.842Z,6.16
2019-03-12T23:34:15.404Z,6.09
2019-03-12T23:39:19.063Z,6.14
2019-03-12T23:44:22.591Z,6.03
2019-03-12T23:49:26.163Z,6.14
2019-03-12T23:54:30.493Z,6.09
2019-03-12T23:59:33.924Z,5.93
